createdAt,value
2018-03-20T00:01:53.062Z,15.95
2018-03-20T00:04:20.529Z,16.37
2018-03-20T00:06:47.994Z,16.27
2018-03-20T00:09:15.454Z,15.50
2018-03-20T00:11:42.921Z,16.12
2018-03-20T00:14:10.365Z,13.88
2018-03-20T00:16:37.815Z,17.35
2018-03-20T00:19:05.281Z,14.85
2018-03-20T00:21:36.110Z,13.27
2018-03-20T00:24:03.560Z,14.95
2018-03-20T00:26:31.026Z,14.50
2018-03-20T00:28:59.016Z,14.80
2018-03-20T00:31:26.935Z,14.87
2018-03-20T00:33:54.382Z,14.00
2018-03-20T00:36:21.838Z,15.90
2018-03-20T00:38:49.295Z,15.00
2018-03-20T00:41:16.771Z,14.85
2018-03-20T00:43:44.234Z,14.27
2018-03-20T00:46:11.687Z,14.80
2018-03-20T00:48:39.146Z,15.25
2018-03-20T00:51:06.590Z,13.55
2018-03-20T00:53:34.061Z,15.18
2018-03-20T00:56:02.062Z,14.45
2018-03-20T00:58:29.559Z,14.18
2018-03-20T01:00:57.006Z,12.00
2018-03-20T01:03:24.457Z,14.38
2018-03-20T01:05:51.911Z,13.75
2018-03-20T01:08:19.370Z,13.70
2018-03-20T01:10:46.821Z,14.23
2018-03-20T01:13:15.075Z,13.52
2018-03-20T01:15:42.710Z,15.60
2018-03-20T01:18:10.223Z,13.95
2018-03-20T01:20:37.679Z,13.30
2018-03-20T01:23:05.184Z,12.50
2018-03-20T01:25:32.636Z,15.48
2018-03-20T01:28:00.130Z,14.02
2018-03-20T01:30:27.578Z,13.80
2018-03-20T01:32:55.035Z,14.90
2018-03-20T01:35:22.493Z,15.10
2018-03-20T01:37:49.949Z,14.82
2018-03-20T01:40:17.418Z,13.15
2018-03-20T01:42:44.862Z,13.70
2018-03-20T01:45:12.496Z,14.50
2018-03-20T01:47:39.939Z,14.50
2018-03-20T01:50:07.385Z,14.18
2018-03-20T01:52:35.431Z,12.90
2018-03-20T01:55:03.028Z,13.68
2018-03-20T01:57:30.485Z,14.70
2018-03-20T01:59:57.933Z,13.55
2018-03-20T02:02:25.420Z,14.50
2018-03-20T02:04:52.880Z,13.60
2018-03-20T02:07:20.327Z,13.10
2018-03-20T02:09:47.796Z,14.57
2018-03-20T02:12:15.251Z,14.07
2018-03-20T02:14:42.710Z,14.23
2018-03-20T02:17:10.169Z,15.10
2018-03-20T02:19:37.628Z,13.10
2018-03-20T02:22:05.064Z,12.52
2018-03-20T02:24:32.528Z,13.98
2018-03-20T02:26:59.972Z,12.65
2018-03-20T02:29:27.439Z,14.35
2018-03-20T02:31:54.886Z,14.13
2018-03-20T02:34:22.324Z,13.88
2018-03-20T02:36:49.801Z,15.50
2018-03-20T02:39:17.263Z,14.80
2018-03-20T02:41:44.710Z,14.73
2018-03-20T02:44:12.744Z,13.80
2018-03-20T02:46:40.250Z,15.48
2018-03-20T02:49:08.127Z,14.63
2018-03-20T02:51:35.605Z,14.55
2018-03-20T02:54:03.085Z,14.02
2018-03-20T02:56:30.542Z,14.30
2018-03-20T02:58:58.002Z,14.40
2018-03-20T03:01:25.443Z,14.38
2018-03-20T03:03:52.910Z,13.82
2018-03-20T03:06:20.774Z,14.52
2018-03-20T03:08:48.237Z,14.55
2018-03-20T03:11:15.703Z,14.82
2018-03-20T03:13:43.146Z,14.80
2018-03-20T03:16:11.343Z,16.70
2018-03-20T03:18:38.805Z,14.30
2018-03-20T03:21:06.256Z,14.20
2018-03-20T03:23:33.722Z,14.43
2018-03-20T03:26:01.178Z,13.60
2018-03-20T03:28:28.655Z,13.43
2018-03-20T03:30:56.102Z,13.60
2018-03-20T03:33:23.570Z,14.55
2018-03-20T03:35:51.016Z,14.10
2018-03-20T03:38:18.485Z,13.80
2018-03-20T03:40:45.945Z,13.00
2018-03-20T03:43:13.382Z,14.07
2018-03-20T03:45:41.176Z,14.77
2018-03-20T03:48:08.622Z,14.48
2018-03-20T03:50:36.078Z,15.65
2018-03-20T03:53:03.517Z,14.10
2018-03-20T03:55:30.999Z,13.52
2018-03-20T03:57:58.448Z,14.32
2018-03-20T04:00:26.067Z,15.35
2018-03-20T04:02:54.090Z,15.43
2018-03-20T04:05:21.850Z,14.00
2018-03-20T04:07:49.655Z,12.43
2018-03-20T04:10:17.106Z,13.98
2018-03-20T04:12:44.585Z,14.07
2018-03-20T04:15:12.036Z,15.27
2018-03-20T04:17:39.498Z,14.77
2018-03-20T04:20:07.013Z,15.98
2018-03-20T04:22:34.531Z,15.05
2018-03-20T04:25:01.986Z,14.70
2018-03-20T04:27:29.446Z,18.35
2018-03-20T04:29:56.882Z,21.65
2018-03-20T04:32:24.335Z,16.02
2018-03-20T04:34:51.784Z,15.80
2018-03-20T04:37:19.254Z,13.60
2018-03-20T04:39:46.693Z,15.10
2018-03-20T04:42:14.143Z,25.40
2018-03-20T04:44:41.605Z,13.85
2018-03-20T04:47:09.054Z,14.32
2018-03-20T04:49:36.516Z,18.15
2018-03-20T04:52:03.970Z,15.43
2018-03-20T04:54:31.428Z,14.98
2018-03-20T04:56:58.892Z,14.20
2018-03-20T04:59:26.349Z,15.05
2018-03-20T05:01:53.802Z,15.23
2018-03-20T05:04:21.338Z,14.90
2018-03-20T05:06:48.923Z,13.35
2018-03-20T05:09:16.523Z,14.40
2018-03-20T05:11:44.028Z,14.40
2018-03-20T05:14:11.500Z,13.88
2018-03-20T05:16:38.952Z,15.70
2018-03-20T05:19:12.031Z,13.80
2018-03-20T05:21:45.095Z,14.65
2018-03-20T05:24:12.559Z,13.85
2018-03-20T05:26:40.029Z,15.20
2018-03-20T05:29:07.480Z,13.70
2018-03-20T05:31:34.940Z,15.48
2018-03-20T05:34:02.385Z,14.80
2018-03-20T05:36:29.821Z,14.75
2018-03-20T05:38:57.271Z,15.77
2018-03-20T05:41:24.754Z,16.73
2018-03-20T05:43:52.212Z,14.60
2018-03-20T05:46:25.320Z,15.48
2018-03-20T05:48:56.360Z,15.68
2018-03-20T05:54:22.508Z,15.70
2018-03-20T05:56:49.964Z,16.50
2018-03-20T05:59:17.421Z,15.40
2018-03-20T06:01:44.879Z,14.20
2018-03-20T06:04:12.406Z,14.98
2018-03-20T06:06:39.857Z,15.48
2018-03-20T06:09:07.341Z,16.08
2018-03-20T06:11:34.795Z,15.55
2018-03-20T06:14:02.526Z,29.17
2018-03-20T06:16:29.981Z,19.05
2018-03-20T06:18:57.440Z,17.08
2018-03-20T06:21:24.899Z,15.60
2018-03-20T06:23:52.648Z,15.60
2018-03-20T06:26:20.119Z,15.82
2018-03-20T06:28:48.172Z,16.17
2018-03-20T06:31:15.686Z,16.67
2018-03-20T06:33:43.131Z,16.52
2018-03-20T06:36:10.586Z,14.50
2018-03-20T06:38:38.254Z,15.80
2018-03-20T06:41:06.995Z,14.93
2018-03-20T06:43:36.465Z,20.02
2018-03-20T06:46:04.310Z,15.80
2018-03-20T06:48:31.772Z,14.60
2018-03-20T06:50:59.442Z,15.77
2018-03-20T06:53:26.887Z,16.50
2018-03-20T06:55:54.401Z,15.77
2018-03-20T06:58:25.459Z,15.48
2018-03-20T07:00:53.069Z,14.90
2018-03-20T07:03:20.514Z,15.77
2018-03-20T07:05:48.332Z,15.48
2018-03-20T07:08:16.497Z,15.60
2018-03-20T07:10:44.058Z,15.63
2018-03-20T07:13:11.606Z,15.18
2018-03-20T07:15:39.069Z,15.82
2018-03-20T07:18:06.550Z,15.48
2018-03-20T07:20:34.135Z,15.48
2018-03-20T07:23:01.749Z,16.67
2018-03-20T07:25:29.254Z,17.50
2018-03-20T07:27:57.272Z,16.60
2018-03-20T07:30:24.728Z,15.07
2018-03-20T07:32:52.495Z,15.10
2018-03-20T07:35:20.119Z,16.52
2018-03-20T07:37:47.597Z,16.30
2018-03-20T07:40:15.120Z,16.37
2018-03-20T07:42:42.674Z,15.35
2018-03-20T07:45:10.167Z,16.80
2018-03-20T07:47:37.701Z,14.75
2018-03-20T07:50:05.220Z,15.15
2018-03-20T07:52:32.738Z,15.82
2018-03-20T07:55:00.220Z,17.50
2018-03-20T07:57:27.740Z,16.92
2018-03-20T07:59:57.533Z,15.25
2018-03-20T08:02:25.019Z,16.85
2018-03-20T08:04:52.523Z,16.05
2018-03-20T08:07:20.077Z,15.57
2018-03-20T08:09:48.541Z,16.33
2018-03-20T08:12:16.085Z,16.75
2018-03-20T08:14:43.643Z,17.62
2018-03-20T08:17:11.195Z,17.30
2018-03-20T08:19:38.758Z,17.25
2018-03-20T08:22:06.250Z,16.60
2018-03-20T08:24:33.752Z,17.00
2018-03-20T08:27:01.209Z,18.77
2018-03-20T08:29:28.659Z,16.58
2018-03-20T08:31:56.105Z,18.80
2018-03-20T08:34:23.605Z,17.23
2018-03-20T08:36:51.095Z,17.60
2018-03-20T08:39:18.547Z,17.25
2018-03-20T08:41:46.004Z,17.20
2018-03-20T08:44:13.461Z,16.85
2018-03-20T08:46:40.994Z,17.50
2018-03-20T08:49:16.720Z,17.73
2018-03-20T08:51:47.646Z,18.92
2018-03-20T08:54:15.102Z,18.17
2018-03-20T08:56:42.567Z,19.08
2018-03-20T08:59:10.010Z,19.27
2018-03-20T09:01:37.524Z,31.00
2018-03-20T09:04:04.992Z,19.90
2018-03-20T09:06:32.443Z,20.40
2018-03-20T09:09:02.988Z,19.67
2018-03-20T09:11:30.482Z,18.12
2018-03-20T09:13:58.050Z,18.10
2018-03-20T09:16:27.792Z,18.70
2018-03-20T09:18:55.305Z,17.67
2018-03-20T09:21:22.780Z,17.35
2018-03-20T09:23:50.227Z,19.92
2018-03-20T09:26:17.674Z,19.23
2018-03-20T09:28:45.234Z,18.25
2018-03-20T09:31:12.701Z,19.75
2018-03-20T09:33:40.153Z,19.77
2018-03-20T09:36:07.651Z,17.90
2018-03-20T09:38:35.112Z,18.05
2018-03-20T09:41:04.037Z,17.67
2018-03-20T09:43:31.618Z,17.40
2018-03-20T09:45:59.109Z,16.60
2018-03-20T09:48:26.611Z,16.20
2018-03-20T09:50:54.077Z,16.70
2018-03-20T09:53:22.387Z,15.90
2018-03-20T09:55:49.824Z,15.32
2018-03-20T09:58:19.308Z,14.40
2018-03-20T10:00:46.910Z,13.38
2018-03-20T10:03:14.416Z,14.52
2018-03-20T10:05:41.859Z,14.48
2018-03-20T10:08:09.306Z,14.77
2018-03-20T10:10:36.796Z,15.45
2018-03-20T10:13:04.239Z,13.35
2018-03-20T10:15:31.692Z,14.52
2018-03-20T10:17:59.186Z,11.38
2018-03-20T10:20:26.652Z,11.55
2018-03-20T10:22:54.123Z,13.00
2018-03-20T10:25:21.616Z,12.80
2018-03-20T10:27:49.740Z,13.73
2018-03-20T10:30:17.202Z,12.30
2018-03-20T10:32:44.662Z,12.37
2018-03-20T10:35:12.151Z,12.50
2018-03-20T10:37:39.586Z,13.80
2018-03-20T10:40:07.067Z,13.48
2018-03-20T10:42:34.529Z,24.87
2018-03-20T10:45:01.979Z,12.18
2018-03-20T10:47:29.461Z,13.05
2018-03-20T10:49:56.912Z,12.85
2018-03-20T10:52:24.374Z,12.18
2018-03-20T10:54:51.918Z,11.70
2018-03-20T10:57:19.429Z,10.15
2018-03-20T10:59:46.879Z,9.23
2018-03-20T11:02:20.189Z,8.68
2018-03-20T11:04:47.627Z,7.82
2018-03-20T11:07:15.089Z,9.90
2018-03-20T11:09:42.543Z,10.27
2018-03-20T11:12:10.050Z,10.98
2018-03-20T11:14:37.688Z,10.93
2018-03-20T11:17:05.224Z,10.32
2018-03-20T11:19:32.686Z,10.30
2018-03-20T11:22:00.501Z,9.90
2018-03-20T11:24:28.020Z,9.90
2018-03-20T11:26:55.491Z,9.38
2018-03-20T11:29:22.929Z,8.77
2018-03-20T11:31:50.396Z,7.30
2018-03-20T11:34:17.857Z,6.65
2018-03-20T11:36:45.305Z,10.13
2018-03-20T11:39:12.851Z,6.82
2018-03-20T11:41:40.318Z,6.82
2018-03-20T11:44:07.761Z,6.55
2018-03-20T11:46:35.873Z,6.43
2018-03-20T11:49:03.422Z,6.15
2018-03-20T11:51:30.891Z,5.12
2018-03-20T11:53:58.363Z,5.55
2018-03-20T11:56:25.834Z,5.95
2018-03-20T11:58:53.278Z,5.53
2018-03-20T12:01:20.725Z,6.53
2018-03-20T12:03:48.178Z,6.78
2018-03-20T12:06:15.630Z,7.07
2018-03-20T12:08:50.690Z,8.10
2018-03-20T12:11:18.135Z,6.35
2018-03-20T12:13:45.601Z,10.40
2018-03-20T12:16:13.043Z,8.32
2018-03-20T12:18:40.486Z,7.18
2018-03-20T12:21:07.955Z,6.90
2018-03-20T12:23:35.402Z,7.45
2018-03-20T12:26:02.850Z,7.10
2018-03-20T12:28:30.580Z,7.68
2018-03-20T12:30:58.045Z,7.60
2018-03-20T12:33:25.493Z,8.40
2018-03-20T12:35:52.954Z,8.70
2018-03-20T12:38:20.571Z,7.65
2018-03-20T12:40:48.013Z,9.60
2018-03-20T12:43:19.418Z,8.15
2018-03-20T12:45:48.014Z,7.18
2018-03-20T12:48:23.080Z,7.72
2018-03-20T12:51:04.551Z,9.85
2018-03-20T12:53:35.661Z,9.40
2018-03-20T12:56:05.673Z,11.07
2018-03-20T12:58:40.786Z,9.95
2018-03-20T13:01:12.756Z,11.38
2018-03-20T13:03:46.831Z,10.93
2018-03-20T13:06:17.872Z,10.52
2018-03-20T13:08:46.356Z,10.65
2018-03-20T13:11:15.199Z,11.63
2018-03-20T13:13:42.981Z,10.98
2018-03-20T13:16:13.274Z,10.85
2018-03-20T13:18:49.457Z,10.48
2018-03-20T13:21:21.919Z,11.38
2018-03-20T13:23:50.143Z,11.80
2018-03-20T13:26:19.940Z,11.85
2018-03-20T13:28:48.357Z,12.05
2018-03-20T13:31:17.960Z,11.40
2018-03-20T13:33:46.870Z,11.12
2018-03-20T13:36:20.135Z,57.25
2018-03-20T13:38:48.138Z,16.15
2018-03-20T13:41:15.630Z,11.50
2018-03-20T13:43:43.465Z,12.37
2018-03-20T13:46:10.908Z,22.83
2018-03-20T13:48:38.358Z,18.95
2018-03-20T13:51:06.493Z,10.88
2018-03-20T13:53:34.026Z,12.52
2018-03-20T13:56:03.242Z,17.33
2018-03-20T13:58:30.693Z,15.68
2018-03-20T14:00:58.177Z,12.30
2018-03-20T14:03:25.605Z,12.52
2018-03-20T14:05:53.157Z,25.98
2018-03-20T14:08:20.594Z,11.98
2018-03-20T14:10:48.062Z,12.05
2018-03-20T14:13:15.509Z,11.32
2018-03-20T14:15:44.943Z,13.18
2018-03-20T14:18:13.356Z,11.68
2018-03-20T14:20:40.885Z,11.75
2018-03-20T14:23:08.528Z,10.95
2018-03-20T14:25:37.365Z,11.32
2018-03-20T14:28:06.806Z,11.68
2018-03-20T14:30:34.353Z,11.88
2018-03-20T14:33:03.103Z,11.10
2018-03-20T14:35:33.265Z,12.05
2018-03-20T14:38:02.656Z,11.95
2018-03-20T14:40:30.736Z,12.55
2018-03-20T14:43:00.367Z,14.77
2018-03-20T14:48:14.443Z,11.40
2018-03-20T14:50:42.774Z,10.70
2018-03-20T14:53:11.334Z,12.07
2018-03-20T14:55:39.884Z,11.50
2018-03-20T14:58:14.904Z,10.25
2018-03-20T15:00:42.354Z,10.25
2018-03-20T15:03:17.674Z,11.18
2018-03-20T15:05:52.545Z,11.43
2018-03-20T15:08:24.415Z,10.82
2018-03-20T15:10:59.646Z,10.52
2018-03-20T15:13:33.302Z,12.60
2018-03-20T15:18:50.462Z,18.67
2018-03-20T15:21:17.999Z,14.30
2018-03-20T15:23:45.468Z,12.18
2018-03-20T15:26:13.101Z,12.90
2018-03-20T15:28:40.784Z,12.50
2018-03-20T15:31:10.321Z,13.20
2018-03-20T15:33:39.626Z,15.23
2018-03-20T15:36:07.942Z,14.07
2018-03-20T15:38:40.587Z,14.30
2018-03-20T15:41:08.542Z,14.13
2018-03-20T15:43:41.629Z,13.88
2018-03-20T15:46:09.543Z,13.75
2018-03-20T15:48:37.002Z,13.48
2018-03-20T15:51:04.577Z,12.48
2018-03-20T15:53:32.026Z,15.57
2018-03-20T15:56:00.202Z,14.60
2018-03-20T15:58:27.645Z,14.45
2018-03-20T16:00:55.144Z,14.07
2018-03-20T16:03:22.620Z,17.23
2018-03-20T16:05:50.080Z,17.17
2018-03-20T16:08:17.518Z,14.13
2018-03-20T16:10:45.003Z,14.20
2018-03-20T16:13:12.508Z,16.08
2018-03-20T16:15:39.955Z,16.92
2018-03-20T16:18:07.434Z,12.70
2018-03-20T16:20:34.907Z,15.00
2018-03-20T16:23:02.368Z,15.20
2018-03-20T16:25:29.854Z,14.23
2018-03-20T16:27:57.349Z,14.55
2018-03-20T16:30:24.803Z,13.18
2018-03-20T16:32:52.273Z,13.88
2018-03-20T16:35:19.739Z,14.02
2018-03-20T16:37:47.175Z,14.87
2018-03-20T16:40:29.841Z,15.50
2018-03-20T16:43:00.144Z,15.88
2018-03-20T16:45:27.595Z,14.77
2018-03-20T16:47:55.108Z,15.48
2018-03-20T16:50:22.575Z,14.00
2018-03-20T16:52:50.035Z,15.07
2018-03-20T16:55:17.484Z,14.20
2018-03-20T16:57:45.088Z,14.18
2018-03-20T17:00:12.543Z,16.20
2018-03-20T17:02:40.439Z,14.65
2018-03-20T17:05:07.943Z,15.55
2018-03-20T17:07:35.545Z,15.43
2018-03-20T17:10:03.510Z,15.48
2018-03-20T17:12:30.969Z,16.37
2018-03-20T17:14:58.434Z,15.18
2018-03-20T17:17:26.091Z,15.60
2018-03-20T17:19:53.614Z,16.58
2018-03-20T17:22:21.082Z,17.45
2018-03-20T17:24:48.580Z,15.55
2018-03-20T17:27:16.323Z,15.73
2018-03-20T17:29:45.087Z,14.35
2018-03-20T17:32:12.531Z,16.05
2018-03-20T17:34:40.252Z,16.62
2018-03-20T17:37:07.713Z,14.80
2018-03-20T17:39:35.244Z,16.20
2018-03-20T17:42:02.685Z,20.00
2018-03-20T17:44:30.263Z,19.77
2018-03-20T17:46:57.715Z,16.70
2018-03-20T17:49:25.216Z,16.83
2018-03-20T17:51:52.675Z,16.77
2018-03-20T17:54:20.137Z,17.23
2018-03-20T17:56:47.619Z,48.45
2018-03-20T17:59:15.167Z,34.13
2018-03-20T18:01:42.685Z,53.95
2018-03-20T18:04:10.138Z,32.72
2018-03-20T18:06:37.582Z,30.02
2018-03-20T18:09:05.044Z,26.00
2018-03-20T18:11:32.490Z,17.17
2018-03-20T18:13:59.971Z,20.30
2018-03-20T18:16:27.443Z,21.90
2018-03-20T18:18:54.907Z,20.92
2018-03-20T18:21:22.745Z,18.70
2018-03-20T18:23:50.211Z,19.15
2018-03-20T18:26:17.704Z,20.25
2018-03-20T18:28:45.244Z,18.35
2018-03-20T18:31:12.725Z,18.23
2018-03-20T18:33:40.204Z,18.25
2018-03-20T18:36:07.679Z,20.40
2018-03-20T18:38:35.154Z,18.48
2018-03-20T18:41:02.608Z,19.25
2018-03-20T18:43:30.074Z,18.90
2018-03-20T18:45:57.634Z,20.35
2018-03-20T18:48:25.280Z,21.55
2018-03-20T18:50:52.755Z,24.45
2018-03-20T18:53:20.487Z,21.12
2018-03-20T18:55:48.738Z,25.67
2018-03-20T18:58:16.197Z,34.42
2018-03-20T19:00:43.667Z,27.10
2018-03-20T19:03:11.506Z,38.85
2018-03-20T19:05:38.980Z,27.85
2018-03-20T19:08:06.460Z,25.88
2018-03-20T19:10:33.928Z,22.55
2018-03-20T19:13:04.252Z,26.67
2018-03-20T19:15:31.725Z,29.70
2018-03-20T19:17:59.229Z,34.63
2018-03-20T19:20:27.987Z,30.12
2018-03-20T19:22:55.505Z,22.65
2018-03-20T19:25:23.145Z,24.10
2018-03-20T19:27:51.166Z,22.40
2018-03-20T19:30:19.479Z,24.85
2018-03-20T19:32:46.916Z,24.55
2018-03-20T19:35:14.409Z,23.67
2018-03-20T19:37:41.946Z,25.98
2018-03-20T19:40:09.596Z,25.40
2018-03-20T19:42:37.166Z,25.25
2018-03-20T19:45:04.682Z,23.55
2018-03-20T19:47:32.204Z,25.15
2018-03-20T19:50:11.863Z,26.23
2018-03-20T19:52:48.172Z,24.00
2018-03-20T19:55:17.003Z,26.92
2018-03-20T19:57:44.482Z,25.48
2018-03-20T20:00:12.180Z,25.12
2018-03-20T20:02:39.645Z,28.30
2018-03-20T20:05:08.201Z,26.30
2018-03-20T20:07:35.715Z,26.58
2018-03-20T20:10:03.309Z,24.30
2018-03-20T20:12:30.775Z,25.25
2018-03-20T20:14:58.358Z,25.12
2018-03-20T20:17:26.015Z,25.40
2018-03-20T20:19:53.470Z,25.60
2018-03-20T20:22:21.029Z,25.80
2018-03-20T20:24:48.743Z,24.17
2018-03-20T20:27:16.384Z,23.90
2018-03-20T20:29:43.935Z,25.17
2018-03-20T20:32:11.502Z,25.20
2018-03-20T20:34:39.710Z,26.08
2018-03-20T20:37:07.170Z,26.05
2018-03-20T20:39:34.670Z,26.20
2018-03-20T20:42:02.466Z,25.58
2018-03-20T20:44:29.953Z,28.38
2018-03-20T20:46:57.415Z,26.65
2018-03-20T20:49:25.016Z,26.27
2018-03-20T20:51:52.523Z,25.80
2018-03-20T20:54:19.995Z,26.23
2018-03-20T20:56:47.470Z,24.30
2018-03-20T20:59:14.959Z,24.80
2018-03-20T21:01:42.470Z,25.40
2018-03-20T21:04:10.091Z,25.92
2018-03-20T21:06:37.590Z,25.40
2018-03-20T21:09:05.032Z,26.15
2018-03-20T21:11:32.502Z,23.38
2018-03-20T21:14:00.148Z,23.45
2018-03-20T21:16:27.625Z,23.05
2018-03-20T21:18:55.103Z,23.98
2018-03-20T21:21:22.768Z,22.90
2018-03-20T21:23:50.238Z,24.37
2018-03-20T21:26:17.707Z,24.55
2018-03-20T21:28:45.156Z,24.00
2018-03-20T21:31:12.608Z,23.83
2018-03-20T21:33:40.067Z,22.65
2018-03-20T21:36:07.522Z,21.65
2018-03-20T21:38:35.001Z,22.90
2018-03-20T21:41:02.525Z,20.23
2018-03-20T21:43:29.974Z,20.48
2018-03-20T21:45:57.422Z,19.40
2018-03-20T21:48:24.893Z,20.20
2018-03-20T21:50:52.350Z,20.62
2018-03-20T21:53:19.789Z,20.60
2018-03-20T21:55:47.348Z,18.20
2018-03-20T21:58:14.787Z,21.10
2018-03-20T22:00:42.269Z,21.23
2018-03-20T22:03:09.741Z,23.92
2018-03-20T22:05:37.206Z,23.65
2018-03-20T22:08:04.666Z,22.83
2018-03-20T22:10:32.108Z,22.30
2018-03-20T22:12:59.594Z,22.58
2018-03-20T22:15:27.046Z,23.20
2018-03-20T22:17:54.596Z,21.30
2018-03-20T22:20:22.054Z,22.77
2018-03-20T22:22:49.521Z,21.95
2018-03-20T22:25:17.027Z,23.85
2018-03-20T22:27:44.483Z,22.33
2018-03-20T22:30:11.942Z,23.20
2018-03-20T22:32:39.476Z,21.48
2018-03-20T22:35:06.981Z,21.65
2018-03-20T22:37:34.433Z,19.62
2018-03-20T22:40:01.898Z,21.52
2018-03-20T22:42:29.337Z,21.98
2018-03-20T22:44:56.867Z,20.98
2018-03-20T22:47:24.338Z,21.37
2018-03-20T22:49:51.844Z,19.05
2018-03-20T22:52:19.344Z,18.05
2018-03-20T22:54:46.819Z,18.17
2018-03-20T22:57:14.291Z,19.17
2018-03-20T22:59:41.792Z,17.95
2018-03-20T23:02:09.377Z,18.70
2018-03-20T23:04:36.924Z,18.62
2018-03-20T23:07:05.037Z,18.95
2018-03-20T23:09:34.665Z,19.58
2018-03-20T23:12:02.115Z,18.90
2018-03-20T23:14:29.599Z,18.75
2018-03-20T23:16:57.095Z,18.20
2018-03-20T23:19:24.522Z,19.35
2018-03-20T23:21:51.969Z,16.92
2018-03-20T23:24:19.420Z,18.12
2018-03-20T23:26:46.871Z,16.60
2018-03-20T23:29:14.361Z,17.45
2018-03-20T23:31:41.810Z,16.70
2018-03-20T23:34:09.273Z,16.83
2018-03-20T23:36:36.731Z,16.20
2018-03-20T23:39:04.210Z,15.73
2018-03-20T23:41:31.637Z,15.63
2018-03-20T23:43:59.092Z,14.35
2018-03-20T23:46:26.545Z,16.10
2018-03-20T23:48:54.002Z,14.02
2018-03-20T23:51:21.459Z,13.85
2018-03-20T23:53:48.928Z,15.07
2018-03-20T23:56:16.386Z,15.57
2018-03-20T23:58:43.823Z,14.02
